Riviera Beach, Florida
Current Conditions -  °F | °C
As of 5:53 AM on Thursday 23 Oct 2014 (Local Time) from KPBI Reporting Station
Heavy Rain Heavy Rain  
Wind Chill: 73°   Ceiling: 2200
Heat Index: 73°   Visibility: 3mi
Dew Point: 72°   Wind: 7mph
Humidity: 96%   Direction: 130°SE
Pressure: 29.9"   Gusts: NA
Location:  26.78°N, 80.06°W
Report Text: KPBI 230953Z 13006KT 3SM R10L/5500VP6000FT +RA BR SCT015 BKN022CB OVC037 23/22 A2990 RMK AO2 SLP125 CB OHD-S-SW MOV LTL P0044 T02280222 $
Loading
Personal Weather Stations






























Interactive Weather Map
Tropical Storm Tracking
New forecast layout! Learn more

10-Day Weather Forecast

Advertisements
Track Severe Weather on mobile